sensor_id;sensor_type;location;lat;lon;timestamp;P1;durP1;ratioP1;P2;durP2;ratioP2
3321;SDS011;1673;51.388;7.086;2022-09-04T00:00:09;5.78;;;4.43;;
3321;SDS011;1673;51.388;7.086;2022-09-04T00:02:44;7.40;;;5.30;;
3321;SDS011;1673;51.388;7.086;2022-09-04T00:05:22;7.07;;;4.63;;
3321;SDS011;1673;51.388;7.086;2022-09-04T00:07:56;9.90;;;4.80;;
3321;SDS011;1673;51.388;7.086;2022-09-04T00:10:35;7.97;;;5.00;;
3321;SDS011;1673;51.388;7.086;2022-09-04T00:13:10;6.72;;;5.13;;
3321;SDS011;1673;51.388;7.086;2022-09-04T00:15:43;8.18;;;5.00;;
3321;SDS011;1673;51.388;7.086;2022-09-04T00:18:16;6.22;;;5.10;;
3321;SDS011;1673;51.388;7.086;2022-09-04T00:20:54;6.73;;;4.83;;
3321;SDS011;1673;51.388;7.086;2022-09-04T00:23:28;6.85;;;4.75;;
3321;SDS011;1673;51.388;7.086;2022-09-04T00:26:05;5.30;;;4.80;;
3321;SDS011;1673;51.388;7.086;2022-09-04T00:28:39;6.57;;;4.60;;
3321;SDS011;1673;51.388;7.086;2022-09-04T00:31:14;7.63;;;4.95;;
3321;SDS011;1673;51.388;7.086;2022-09-04T00:33:54;6.47;;;4.30;;
3321;SDS011;1673;51.388;7.086;2022-09-04T00:36:37;10.70;;;4.68;;
3321;SDS011;1673;51.388;7.086;2022-09-04T00:39:15;6.90;;;4.70;;
3321;SDS011;1673;51.388;7.086;2022-09-04T00:41:52;5.97;;;4.80;;
3321;SDS011;1673;51.388;7.086;2022-09-04T00:44:34;6.53;;;4.82;;
3321;SDS011;1673;51.388;7.086;2022-09-04T00:47:21;7.30;;;4.95;;
3321;SDS011;1673;51.388;7.086;2022-09-04T00:50:23;5.85;;;4.45;;
3321;SDS011;1673;51.388;7.086;2022-09-04T00:53:04;6.72;;;4.50;;
3321;SDS011;1673;51.388;7.086;2022-09-04T00:55:48;6.25;;;4.50;;
3321;SDS011;1673;51.388;7.086;2022-09-04T00:58:30;6.60;;;4.80;;
3321;SDS011;1673;51.388;7.086;2022-09-04T01:01:05;7.30;;;4.73;;
3321;SDS011;1673;51.388;7.086;2022-09-04T01:03:42;7.10;;;4.70;;
3321;SDS011;1673;51.388;7.086;2022-09-04T01:06:28;6.93;;;4.75;;
3321;SDS011;1673;51.388;7.086;2022-09-04T01:09:16;5.80;;;4.90;;
3321;SDS011;1673;51.388;7.086;2022-09-04T01:11:55;6.60;;;5.00;;
3321;SDS011;1673;51.388;7.086;2022-09-04T01:14:30;7.60;;;5.60;;
3321;SDS011;1673;51.388;7.086;2022-09-04T01:17:09;6.10;;;4.80;;
3321;SDS011;1673;51.388;7.086;2022-09-04T01:19:47;6.10;;;4.33;;
3321;SDS011;1673;51.388;7.086;2022-09-04T01:22:32;8.95;;;5.47;;
3321;SDS011;1673;51.388;7.086;2022-09-04T01:25:19;7.55;;;4.97;;
3321;SDS011;1673;51.388;7.086;2022-09-04T01:28:01;6.10;;;4.60;;
3321;SDS011;1673;51.388;7.086;2022-09-04T01:30:36;6.88;;;5.05;;
3321;SDS011;1673;51.388;7.086;2022-09-04T01:33:12;8.23;;;6.10;;
3321;SDS011;1673;51.388;7.086;2022-09-04T01:35:48;7.20;;;4.90;;
3321;SDS011;1673;51.388;7.086;2022-09-04T01:38:24;6.78;;;5.28;;
3321;SDS011;1673;51.388;7.086;2022-09-04T01:41:01;7.35;;;5.68;;
3321;SDS011;1673;51.388;7.086;2022-09-04T01:43:36;9.63;;;5.20;;
3321;SDS011;1673;51.388;7.086;2022-09-04T01:49:05;6.38;;;5.10;;
3321;SDS011;1673;51.388;7.086;2022-09-04T01:51:40;9.38;;;6.20;;
3321;SDS011;1673;51.388;7.086;2022-09-04T01:54:16;7.00;;;5.30;;
3321;SDS011;1673;51.388;7.086;2022-09-04T01:56:54;9.18;;;5.70;;
3321;SDS011;1673;51.388;7.086;2022-09-04T01:59:35;8.50;;;6.10;;
3321;SDS011;1673;51.388;7.086;2022-09-04T02:02:12;9.00;;;5.50;;
3321;SDS011;1673;51.388;7.086;2022-09-04T02:04:45;7.93;;;5.72;;
3321;SDS011;1673;51.388;7.086;2022-09-04T02:07:19;8.82;;;6.25;;
3321;SDS011;1673;51.388;7.086;2022-09-04T02:09:56;7.07;;;5.83;;
3321;SDS011;1673;51.388;7.086;2022-09-04T02:12:33;7.57;;;6.05;;
3321;SDS011;1673;51.388;7.086;2022-09-04T02:15:12;7.50;;;5.80;;
3321;SDS011;1673;51.388;7.086;2022-09-04T02:17:53;9.48;;;5.90;;
3321;SDS011;1673;51.388;7.086;2022-09-04T02:20:28;7.13;;;5.63;;
3321;SDS011;1673;51.388;7.086;2022-09-04T02:23:03;7.28;;;5.90;;
3321;SDS011;1673;51.388;7.086;2022-09-04T02:25:40;7.17;;;5.90;;
3321;SDS011;1673;51.388;7.086;2022-09-04T02:28:17;6.70;;;5.60;;
3321;SDS011;1673;51.388;7.086;2022-09-04T02:30:55;7.40;;;5.30;;
3321;SDS011;1673;51.388;7.086;2022-09-04T02:33:32;6.75;;;5.50;;
3321;SDS011;1673;51.388;7.086;2022-09-04T02:36:07;7.35;;;5.60;;
3321;SDS011;1673;51.388;7.086;2022-09-04T02:38:42;6.63;;;5.50;;
3321;SDS011;1673;51.388;7.086;2022-09-04T02:41:19;6.97;;;5.35;;
3321;SDS011;1673;51.388;7.086;2022-09-04T02:43:57;6.88;;;5.43;;
3321;SDS011;1673;51.388;7.086;2022-09-04T02:46:39;7.60;;;5.50;;
3321;SDS011;1673;51.388;7.086;2022-09-04T02:49:19;6.00;;;5.25;;
3321;SDS011;1673;51.388;7.086;2022-09-04T02:51:59;8.20;;;6.13;;
3321;SDS011;1673;51.388;7.086;2022-09-04T02:54:42;6.68;;;5.38;;
3321;SDS011;1673;51.388;7.086;2022-09-04T02:57:22;7.87;;;5.53;;
3321;SDS011;1673;51.388;7.086;2022-09-04T02:59:57;9.30;;;5.30;;
3321;SDS011;1673;51.388;7.086;2022-09-04T03:02:37;7.63;;;6.07;;
3321;SDS011;1673;51.388;7.086;2022-09-04T03:05:12;7.80;;;5.80;;
3321;SDS011;1673;51.388;7.086;2022-09-04T03:07:49;9.63;;;5.53;;
3321;SDS011;1673;51.388;7.086;2022-09-04T03:10:23;8.30;;;5.90;;
3321;SDS011;1673;51.388;7.086;2022-09-04T03:12:59;7.07;;;5.75;;
3321;SDS011;1673;51.388;7.086;2022-09-04T03:15:32;5.55;;;4.60;;
3321;SDS011;1673;51.388;7.086;2022-09-04T03:18:09;7.18;;;5.32;;
3321;SDS011;1673;51.388;7.086;2022-09-04T03:20:46;5.60;;;5.00;;
3321;SDS011;1673;51.388;7.086;2022-09-04T03:23:20;7.32;;;5.35;;
3321;SDS011;1673;51.388;7.086;2022-09-04T03:25:55;6.13;;;5.20;;
3321;SDS011;1673;51.388;7.086;2022-09-04T03:29:00;7.07;;;5.30;;
3321;SDS011;1673;51.388;7.086;2022-09-04T03:31:37;7.60;;;4.90;;
3321;SDS011;1673;51.388;7.086;2022-09-04T03:34:23;9.40;;;5.25;;
3321;SDS011;1673;51.388;7.086;2022-09-04T03:37:00;7.90;;;5.60;;
3321;SDS011;1673;51.388;7.086;2022-09-04T03:39:43;5.75;;;4.80;;
3321;SDS011;1673;51.388;7.086;2022-09-04T03:42:18;7.07;;;5.43;;
3321;SDS011;1673;51.388;7.086;2022-09-04T03:44:55;6.63;;;5.63;;
3321;SDS011;1673;51.388;7.086;2022-09-04T03:47:33;6.22;;;5.28;;
3321;SDS011;1673;51.388;7.086;2022-09-04T03:50:17;7.40;;;5.40;;
3321;SDS011;1673;51.388;7.086;2022-09-04T03:52:55;6.90;;;5.10;;
3321;SDS011;1673;51.388;7.086;2022-09-04T03:58:39;8.10;;;5.20;;
3321;SDS011;1673;51.388;7.086;2022-09-04T04:01:14;6.75;;;5.50;;
3321;SDS011;1673;51.388;7.086;2022-09-04T04:03:56;9.03;;;5.70;;
3321;SDS011;1673;51.388;7.086;2022-09-04T04:06:38;8.55;;;6.30;;
3321;SDS011;1673;51.388;7.086;2022-09-04T04:09:24;8.80;;;5.78;;
3321;SDS011;1673;51.388;7.086;2022-09-04T04:12:12;7.18;;;5.72;;
3321;SDS011;1673;51.388;7.086;2022-09-04T04:15:12;9.00;;;5.50;;
3321;SDS011;1673;51.388;7.086;2022-09-04T04:17:57;7.13;;;5.20;;
3321;SDS011;1673;51.388;7.086;2022-09-04T04:20:40;7.03;;;5.43;;
3321;SDS011;1673;51.388;7.086;2022-09-04T04:23:33;6.70;;;5.50;;
3321;SDS011;1673;51.388;7.086;2022-09-04T04:26:37;8.27;;;5.57;;
3321;SDS011;1673;51.388;7.086;2022-09-04T04:29:30;6.97;;;5.80;;
3321;SDS011;1673;51.388;7.086;2022-09-04T04:32:15;6.50;;;5.70;;
3321;SDS011;1673;51.388;7.086;2022-09-04T04:34:56;7.20;;;5.65;;
3321;SDS011;1673;51.388;7.086;2022-09-04T04:37:33;7.93;;;5.65;;
3321;SDS011;1673;51.388;7.086;2022-09-04T04:40:20;9.00;;;5.68;;
3321;SDS011;1673;51.388;7.086;2022-09-04T04:42:57;7.07;;;5.70;;
3321;SDS011;1673;51.388;7.086;2022-09-04T04:45:30;8.65;;;5.72;;
3321;SDS011;1673;51.388;7.086;2022-09-04T04:51:20;7.78;;;5.60;;
3321;SDS011;1673;51.388;7.086;2022-09-04T04:54:13;7.78;;;5.70;;
3321;SDS011;1673;51.388;7.086;2022-09-04T04:56:56;8.32;;;6.35;;
3321;SDS011;1673;51.388;7.086;2022-09-04T04:59:33;7.80;;;5.30;;
3321;SDS011;1673;51.388;7.086;2022-09-04T05:02:08;7.95;;;5.90;;
3321;SDS011;1673;51.388;7.086;2022-09-04T05:04:48;7.65;;;5.68;;
3321;SDS011;1673;51.388;7.086;2022-09-04T05:07:26;6.60;;;5.90;;
3321;SDS011;1673;51.388;7.086;2022-09-04T05:10:02;7.10;;;5.20;;
3321;SDS011;1673;51.388;7.086;2022-09-04T05:12:44;8.70;;;5.80;;
3321;SDS011;1673;51.388;7.086;2022-09-04T05:15:22;8.83;;;6.30;;
3321;SDS011;1673;51.388;7.086;2022-09-04T05:17:55;7.82;;;6.50;;
3321;SDS011;1673;51.388;7.086;2022-09-04T05:20:34;9.02;;;6.13;;
3321;SDS011;1673;51.388;7.086;2022-09-04T05:23:13;7.70;;;6.00;;
3321;SDS011;1673;51.388;7.086;2022-09-04T05:25:56;8.50;;;6.63;;
3321;SDS011;1673;51.388;7.086;2022-09-04T05:28:32;8.55;;;6.22;;
3321;SDS011;1673;51.388;7.086;2022-09-04T05:31:10;10.50;;;6.30;;
3321;SDS011;1673;51.388;7.086;2022-09-04T05:33:46;8.30;;;6.00;;
3321;SDS011;1673;51.388;7.086;2022-09-04T05:36:24;6.75;;;5.80;;
3321;SDS011;1673;51.388;7.086;2022-09-04T05:39:02;7.53;;;6.47;;
3321;SDS011;1673;51.388;7.086;2022-09-04T05:41:37;7.55;;;5.90;;
3321;SDS011;1673;51.388;7.086;2022-09-04T05:44:20;9.10;;;6.10;;
3321;SDS011;1673;51.388;7.086;2022-09-04T05:47:10;7.40;;;6.05;;
3321;SDS011;1673;51.388;7.086;2022-09-04T05:49:57;9.02;;;6.20;;
3321;SDS011;1673;51.388;7.086;2022-09-04T05:52:42;7.27;;;6.47;;
3321;SDS011;1673;51.388;7.086;2022-09-04T05:55:26;10.70;;;6.30;;
3321;SDS011;1673;51.388;7.086;2022-09-04T05:58:14;8.57;;;5.60;;
3321;SDS011;1673;51.388;7.086;2022-09-04T06:00:57;7.70;;;6.53;;
3321;SDS011;1673;51.388;7.086;2022-09-04T06:03:37;7.63;;;6.30;;
3321;SDS011;1673;51.388;7.086;2022-09-04T06:06:19;8.73;;;6.50;;
3321;SDS011;1673;51.388;7.086;2022-09-04T06:09:01;7.10;;;6.10;;
3321;SDS011;1673;51.388;7.086;2022-09-04T06:11:40;9.50;;;7.20;;
3321;SDS011;1673;51.388;7.086;2022-09-04T06:14:24;6.60;;;5.75;;
3321;SDS011;1673;51.388;7.086;2022-09-04T06:17:17;8.48;;;7.25;;
3321;SDS011;1673;51.388;7.086;2022-09-04T06:23:46;8.80;;;6.60;;
3321;SDS011;1673;51.388;7.086;2022-09-04T06:26:32;9.05;;;6.63;;
3321;SDS011;1673;51.388;7.086;2022-09-04T06:32:19;10.60;;;7.07;;
3321;SDS011;1673;51.388;7.086;2022-09-04T06:35:13;9.27;;;6.18;;
3321;SDS011;1673;51.388;7.086;2022-09-04T06:38:08;11.52;;;7.53;;
3321;SDS011;1673;51.388;7.086;2022-09-04T06:40:47;12.83;;;6.60;;
3321;SDS011;1673;51.388;7.086;2022-09-04T06:43:26;8.90;;;6.90;;
3321;SDS011;1673;51.388;7.086;2022-09-04T06:46:06;7.90;;;6.10;;
3321;SDS011;1673;51.388;7.086;2022-09-04T06:48:48;9.63;;;7.10;;
3321;SDS011;1673;51.388;7.086;2022-09-04T06:51:26;8.55;;;6.65;;
3321;SDS011;1673;51.388;7.086;2022-09-04T06:54:04;9.55;;;7.40;;
3321;SDS011;1673;51.388;7.086;2022-09-04T06:56:46;9.73;;;6.88;;
3321;SDS011;1673;51.388;7.086;2022-09-04T06:59:34;11.93;;;7.70;;
3321;SDS011;1673;51.388;7.086;2022-09-04T07:02:13;9.25;;;6.40;;
3321;SDS011;1673;51.388;7.086;2022-09-04T07:04:54;9.40;;;7.27;;
3321;SDS011;1673;51.388;7.086;2022-09-04T07:07:36;9.02;;;7.07;;
3321;SDS011;1673;51.388;7.086;2022-09-04T07:10:08;13.20;;;6.80;;
3321;SDS011;1673;51.388;7.086;2022-09-04T07:12:47;11.40;;;7.20;;
3321;SDS011;1673;51.388;7.086;2022-09-04T07:15:37;9.20;;;7.00;;
3321;SDS011;1673;51.388;7.086;2022-09-04T07:18:33;8.40;;;6.23;;
3321;SDS011;1673;51.388;7.086;2022-09-04T07:21:21;9.00;;;6.35;;
3321;SDS011;1673;51.388;7.086;2022-09-04T07:23:58;11.13;;;6.00;;
3321;SDS011;1673;51.388;7.086;2022-09-04T07:26:33;9.43;;;6.07;;
3321;SDS011;1673;51.388;7.086;2022-09-04T07:29:11;7.07;;;5.80;;
3321;SDS011;1673;51.388;7.086;2022-09-04T07:31:56;10.10;;;6.40;;
3321;SDS011;1673;51.388;7.086;2022-09-04T07:34:32;10.32;;;6.50;;
3321;SDS011;1673;51.388;7.086;2022-09-04T07:37:12;8.82;;;6.10;;
3321;SDS011;1673;51.388;7.086;2022-09-04T07:39:53;8.05;;;5.50;;
3321;SDS011;1673;51.388;7.086;2022-09-04T07:42:34;8.73;;;6.00;;
3321;SDS011;1673;51.388;7.086;2022-09-04T07:45:10;7.38;;;5.75;;
3321;SDS011;1673;51.388;7.086;2022-09-04T07:47:50;6.60;;;5.47;;
3321;SDS011;1673;51.388;7.086;2022-09-04T07:50:28;7.72;;;5.70;;
3321;SDS011;1673;51.388;7.086;2022-09-04T07:53:11;5.80;;;4.70;;
3321;SDS011;1673;51.388;7.086;2022-09-04T07:55:48;6.00;;;5.10;;
3321;SDS011;1673;51.388;7.086;2022-09-04T07:58:25;6.80;;;5.50;;
3321;SDS011;1673;51.388;7.086;2022-09-04T08:01:10;6.05;;;4.90;;
3321;SDS011;1673;51.388;7.086;2022-09-04T08:04:13;8.40;;;5.68;;
3321;SDS011;1673;51.388;7.086;2022-09-04T08:07:06;6.78;;;5.07;;
3321;SDS011;1673;51.388;7.086;2022-09-04T08:09:52;6.80;;;5.03;;
3321;SDS011;1673;51.388;7.086;2022-09-04T08:15:29;6.67;;;5.70;;
3321;SDS011;1673;51.388;7.086;2022-09-04T08:21:00;8.02;;;4.50;;
3321;SDS011;1673;51.388;7.086;2022-09-04T08:23:51;5.47;;;4.27;;
3321;SDS011;1673;51.388;7.086;2022-09-04T08:26:43;8.10;;;4.32;;
3321;SDS011;1673;51.388;7.086;2022-09-04T08:29:24;6.80;;;4.00;;
3321;SDS011;1673;51.388;7.086;2022-09-04T08:32:06;6.13;;;4.50;;
3321;SDS011;1673;51.388;7.086;2022-09-04T08:34:48;6.23;;;4.30;;
3321;SDS011;1673;51.388;7.086;2022-09-04T08:37:30;6.15;;;4.40;;
3321;SDS011;1673;51.388;7.086;2022-09-04T08:40:15;5.18;;;3.90;;
3321;SDS011;1673;51.388;7.086;2022-09-04T08:43:15;5.60;;;4.03;;
3321;SDS011;1673;51.388;7.086;2022-09-04T08:46:15;5.93;;;3.30;;
3321;SDS011;1673;51.388;7.086;2022-09-04T08:49:11;5.53;;;4.00;;
3321;SDS011;1673;51.388;7.086;2022-09-04T08:58:15;6.10;;;3.50;;
3321;SDS011;1673;51.388;7.086;2022-09-04T09:01:04;5.85;;;3.65;;
3321;SDS011;1673;51.388;7.086;2022-09-04T09:03:51;6.32;;;3.65;;
3321;SDS011;1673;51.388;7.086;2022-09-04T09:18:40;5.50;;;3.30;;
3321;SDS011;1673;51.388;7.086;2022-09-04T09:21:26;4.75;;;3.03;;
3321;SDS011;1673;51.388;7.086;2022-09-04T09:24:08;5.17;;;3.40;;
3321;SDS011;1673;51.388;7.086;2022-09-04T09:26:52;4.20;;;3.60;;
3321;SDS011;1673;51.388;7.086;2022-09-04T09:29:46;5.95;;;3.80;;
3321;SDS011;1673;51.388;7.086;2022-09-04T09:32:44;5.28;;;3.50;;
3321;SDS011;1673;51.388;7.086;2022-09-04T09:48:05;4.40;;;2.72;;
3321;SDS011;1673;51.388;7.086;2022-09-04T09:51:06;6.38;;;3.88;;
3321;SDS011;1673;51.388;7.086;2022-09-04T09:53:59;4.90;;;3.00;;
3321;SDS011;1673;51.388;7.086;2022-09-04T09:56:48;5.65;;;2.88;;
3321;SDS011;1673;51.388;7.086;2022-09-04T09:59:55;7.93;;;3.53;;
3321;SDS011;1673;51.388;7.086;2022-09-04T10:05:56;4.93;;;3.00;;
3321;SDS011;1673;51.388;7.086;2022-09-04T10:11:44;4.97;;;2.90;;
3321;SDS011;1673;51.388;7.086;2022-09-04T10:14:48;4.32;;;2.80;;
3321;SDS011;1673;51.388;7.086;2022-09-04T10:17:42;6.43;;;2.33;;
3321;SDS011;1673;51.388;7.086;2022-09-04T10:20:35;5.90;;;2.70;;
3321;SDS011;1673;51.388;7.086;2022-09-04T10:23:32;6.15;;;3.08;;
3321;SDS011;1673;51.388;7.086;2022-09-04T10:32:22;4.40;;;2.47;;
3321;SDS011;1673;51.388;7.086;2022-09-04T10:37:56;7.13;;;3.30;;
3321;SDS011;1673;51.388;7.086;2022-09-04T10:40:38;3.30;;;2.70;;
3321;SDS011;1673;51.388;7.086;2022-09-04T10:46:07;3.53;;;2.65;;
3321;SDS011;1673;51.388;7.086;2022-09-04T10:49:02;4.63;;;3.10;;
3321;SDS011;1673;51.388;7.086;2022-09-04T10:54:50;5.38;;;2.90;;
3321;SDS011;1673;51.388;7.086;2022-09-04T10:57:50;6.22;;;2.97;;
3321;SDS011;1673;51.388;7.086;2022-09-04T11:00:25;3.83;;;2.90;;
3321;SDS011;1673;51.388;7.086;2022-09-04T11:03:06;4.10;;;2.80;;
3321;SDS011;1673;51.388;7.086;2022-09-04T11:05:48;5.03;;;3.23;;
3321;SDS011;1673;51.388;7.086;2022-09-04T11:08:31;4.70;;;2.88;;
3321;SDS011;1673;51.388;7.086;2022-09-04T11:11:17;4.32;;;2.90;;
3321;SDS011;1673;51.388;7.086;2022-09-04T11:17:06;4.00;;;2.80;;
3321;SDS011;1673;51.388;7.086;2022-09-04T11:23:07;3.53;;;2.70;;
3321;SDS011;1673;51.388;7.086;2022-09-04T11:25:58;4.20;;;3.33;;
3321;SDS011;1673;51.388;7.086;2022-09-04T11:28:58;4.70;;;3.10;;
3321;SDS011;1673;51.388;7.086;2022-09-04T11:31:58;3.83;;;3.00;;
3321;SDS011;1673;51.388;7.086;2022-09-04T11:46:37;4.90;;;3.60;;
3321;SDS011;1673;51.388;7.086;2022-09-04T11:49:35;7.78;;;3.50;;
3321;SDS011;1673;51.388;7.086;2022-09-04T11:52:24;4.32;;;3.05;;
3321;SDS011;1673;51.388;7.086;2022-09-04T11:57:59;5.23;;;3.10;;
3321;SDS011;1673;51.388;7.086;2022-09-04T12:00:38;4.93;;;2.83;;
3321;SDS011;1673;51.388;7.086;2022-09-04T12:03:29;7.93;;;3.10;;
3321;SDS011;1673;51.388;7.086;2022-09-04T12:06:12;6.57;;;3.00;;
3321;SDS011;1673;51.388;7.086;2022-09-04T12:09:08;6.20;;;3.00;;
3321;SDS011;1673;51.388;7.086;2022-09-04T12:14:58;5.60;;;3.35;;
3321;SDS011;1673;51.388;7.086;2022-09-04T12:18:02;4.22;;;2.90;;
3321;SDS011;1673;51.388;7.086;2022-09-04T12:20:55;5.75;;;2.90;;
3321;SDS011;1673;51.388;7.086;2022-09-04T12:26:53;4.13;;;2.95;;
3321;SDS011;1673;51.388;7.086;2022-09-04T12:35:44;7.75;;;3.00;;
3321;SDS011;1673;51.388;7.086;2022-09-04T12:38:40;5.30;;;2.90;;
3321;SDS011;1673;51.388;7.086;2022-09-04T12:41:37;4.45;;;2.72;;
3321;SDS011;1673;51.388;7.086;2022-09-04T12:44:16;4.20;;;2.60;;
3321;SDS011;1673;51.388;7.086;2022-09-04T12:46:58;5.10;;;2.90;;
3321;SDS011;1673;51.388;7.086;2022-09-04T12:49:43;3.97;;;2.38;;
3321;SDS011;1673;51.388;7.086;2022-09-04T12:52:32;4.60;;;2.70;;
3321;SDS011;1673;51.388;7.086;2022-09-04T12:55:23;5.00;;;3.20;;
3321;SDS011;1673;51.388;7.086;2022-09-04T12:58:04;4.80;;;3.00;;
3321;SDS011;1673;51.388;7.086;2022-09-04T13:00:41;4.35;;;2.70;;
3321;SDS011;1673;51.388;7.086;2022-09-04T13:03:19;6.85;;;3.28;;
3321;SDS011;1673;51.388;7.086;2022-09-04T13:06:00;4.80;;;2.97;;
3321;SDS011;1673;51.388;7.086;2022-09-04T13:08:42;5.10;;;3.30;;
3321;SDS011;1673;51.388;7.086;2022-09-04T13:11:27;4.60;;;3.50;;
3321;SDS011;1673;51.388;7.086;2022-09-04T13:14:09;7.22;;;3.83;;
3321;SDS011;1673;51.388;7.086;2022-09-04T13:16:53;5.78;;;3.60;;
3321;SDS011;1673;51.388;7.086;2022-09-04T13:19:26;10.23;;;3.40;;
3321;SDS011;1673;51.388;7.086;2022-09-04T13:22:04;5.53;;;3.10;;
3321;SDS011;1673;51.388;7.086;2022-09-04T13:24:42;4.90;;;3.07;;
3321;SDS011;1673;51.388;7.086;2022-09-04T13:27:24;3.70;;;3.22;;
3321;SDS011;1673;51.388;7.086;2022-09-04T13:30:04;4.93;;;2.75;;
3321;SDS011;1673;51.388;7.086;2022-09-04T13:35:40;5.33;;;2.70;;
3321;SDS011;1673;51.388;7.086;2022-09-04T13:38:32;4.25;;;2.80;;
3321;SDS011;1673;51.388;7.086;2022-09-04T13:44:32;6.60;;;2.77;;
3321;SDS011;1673;51.388;7.086;2022-09-04T13:47:16;3.35;;;2.47;;
3321;SDS011;1673;51.388;7.086;2022-09-04T13:50:01;5.57;;;2.83;;
3321;SDS011;1673;51.388;7.086;2022-09-04T13:52:35;4.00;;;3.00;;
3321;SDS011;1673;51.388;7.086;2022-09-04T13:55:11;6.82;;;2.60;;
3321;SDS011;1673;51.388;7.086;2022-09-04T13:57:44;5.00;;;2.78;;
3321;SDS011;1673;51.388;7.086;2022-09-04T14:00:21;4.88;;;2.45;;
3321;SDS011;1673;51.388;7.086;2022-09-04T14:02:54;4.20;;;2.58;;
3321;SDS011;1673;51.388;7.086;2022-09-04T14:05:27;5.05;;;2.70;;
3321;SDS011;1673;51.388;7.086;2022-09-04T14:08:03;4.45;;;2.60;;
3321;SDS011;1673;51.388;7.086;2022-09-04T14:10:47;3.70;;;2.90;;
3321;SDS011;1673;51.388;7.086;2022-09-04T14:13:29;4.80;;;2.90;;
3321;SDS011;1673;51.388;7.086;2022-09-04T14:16:09;5.00;;;2.70;;
3321;SDS011;1673;51.388;7.086;2022-09-04T14:18:49;3.47;;;2.95;;
3321;SDS011;1673;51.388;7.086;2022-09-04T14:21:35;4.40;;;3.10;;
3321;SDS011;1673;51.388;7.086;2022-09-04T14:24:11;4.05;;;2.90;;
3321;SDS011;1673;51.388;7.086;2022-09-04T14:26:44;4.80;;;2.73;;
3321;SDS011;1673;51.388;7.086;2022-09-04T14:29:21;4.47;;;2.50;;
3321;SDS011;1673;51.388;7.086;2022-09-04T14:32:03;4.32;;;2.75;;
3321;SDS011;1673;51.388;7.086;2022-09-04T14:34:41;4.78;;;3.38;;
3321;SDS011;1673;51.388;7.086;2022-09-04T14:37:22;4.97;;;3.08;;
3321;SDS011;1673;51.388;7.086;2022-09-04T14:40:02;5.03;;;2.90;;
3321;SDS011;1673;51.388;7.086;2022-09-04T14:42:38;5.43;;;2.60;;
3321;SDS011;1673;51.388;7.086;2022-09-04T14:45:14;5.50;;;2.50;;
3321;SDS011;1673;51.388;7.086;2022-09-04T14:47:52;6.72;;;2.70;;
3321;SDS011;1673;51.388;7.086;2022-09-04T14:50:26;5.00;;;2.50;;
3321;SDS011;1673;51.388;7.086;2022-09-04T14:52:56;3.40;;;2.42;;
3321;SDS011;1673;51.388;7.086;2022-09-04T14:55:29;4.13;;;2.80;;
3321;SDS011;1673;51.388;7.086;2022-09-04T14:58:02;4.80;;;2.80;;
3321;SDS011;1673;51.388;7.086;2022-09-04T15:00:50;4.75;;;2.72;;
3321;SDS011;1673;51.388;7.086;2022-09-04T15:03:27;5.47;;;3.20;;
3321;SDS011;1673;51.388;7.086;2022-09-04T15:06:02;4.05;;;2.90;;
3321;SDS011;1673;51.388;7.086;2022-09-04T15:08:35;3.88;;;3.00;;
3321;SDS011;1673;51.388;7.086;2022-09-04T15:11:08;3.90;;;2.30;;
3321;SDS011;1673;51.388;7.086;2022-09-04T15:13:44;4.60;;;2.70;;
3321;SDS011;1673;51.388;7.086;2022-09-04T15:16:19;4.07;;;2.05;;
3321;SDS011;1673;51.388;7.086;2022-09-04T15:19:06;4.80;;;2.47;;
3321;SDS011;1673;51.388;7.086;2022-09-04T15:21:49;4.00;;;2.30;;
3321;SDS011;1673;51.388;7.086;2022-09-04T15:24:25;4.28;;;2.40;;
3321;SDS011;1673;51.388;7.086;2022-09-04T15:26:59;6.88;;;2.67;;
3321;SDS011;1673;51.388;7.086;2022-09-04T15:29:35;4.90;;;2.30;;
3321;SDS011;1673;51.388;7.086;2022-09-04T15:32:10;5.22;;;2.22;;
3321;SDS011;1673;51.388;7.086;2022-09-04T15:34:43;5.87;;;2.20;;
3321;SDS011;1673;51.388;7.086;2022-09-04T15:37:15;3.55;;;2.20;;
3321;SDS011;1673;51.388;7.086;2022-09-04T15:39:50;4.40;;;1.90;;
3321;SDS011;1673;51.388;7.086;2022-09-04T15:42:34;3.70;;;2.40;;
3321;SDS011;1673;51.388;7.086;2022-09-04T15:45:09;3.95;;;2.30;;
3321;SDS011;1673;51.388;7.086;2022-09-04T15:51:01;4.25;;;2.30;;
3321;SDS011;1673;51.388;7.086;2022-09-04T15:53:39;6.00;;;2.40;;
3321;SDS011;1673;51.388;7.086;2022-09-04T15:56:25;4.07;;;2.17;;
3321;SDS011;1673;51.388;7.086;2022-09-04T15:58:59;3.20;;;1.97;;
3321;SDS011;1673;51.388;7.086;2022-09-04T16:01:33;5.20;;;2.30;;
3321;SDS011;1673;51.388;7.086;2022-09-04T16:04:12;4.15;;;2.15;;
3321;SDS011;1673;51.388;7.086;2022-09-04T16:06:51;3.33;;;2.40;;
3321;SDS011;1673;51.388;7.086;2022-09-04T16:09:25;4.20;;;2.40;;
3321;SDS011;1673;51.388;7.086;2022-09-04T16:12:00;4.20;;;2.30;;
3321;SDS011;1673;51.388;7.086;2022-09-04T16:14:34;3.78;;;2.10;;
3321;SDS011;1673;51.388;7.086;2022-09-04T16:17:10;4.57;;;2.00;;
3321;SDS011;1673;51.388;7.086;2022-09-04T16:19:43;4.32;;;2.30;;
3321;SDS011;1673;51.388;7.086;2022-09-04T16:22:24;3.25;;;2.20;;
3321;SDS011;1673;51.388;7.086;2022-09-04T16:25:03;4.28;;;2.67;;
3321;SDS011;1673;51.388;7.086;2022-09-04T16:27:37;2.75;;;1.80;;
3321;SDS011;1673;51.388;7.086;2022-09-04T16:30:23;3.92;;;2.10;;
3321;SDS011;1673;51.388;7.086;2022-09-04T16:33:01;3.88;;;2.00;;
3321;SDS011;1673;51.388;7.086;2022-09-04T16:35:50;4.38;;;2.20;;
3321;SDS011;1673;51.388;7.086;2022-09-04T16:38:25;4.40;;;2.30;;
3321;SDS011;1673;51.388;7.086;2022-09-04T16:40:59;4.60;;;2.40;;
3321;SDS011;1673;51.388;7.086;2022-09-04T16:43:32;4.80;;;2.53;;
3321;SDS011;1673;51.388;7.086;2022-09-04T16:46:06;3.80;;;2.23;;
3321;SDS011;1673;51.388;7.086;2022-09-04T16:48:40;6.93;;;2.40;;
3321;SDS011;1673;51.388;7.086;2022-09-04T16:51:19;4.20;;;2.10;;
3321;SDS011;1673;51.388;7.086;2022-09-04T16:54:09;5.00;;;2.60;;
3321;SDS011;1673;51.388;7.086;2022-09-04T16:56:42;4.57;;;2.30;;
3321;SDS011;1673;51.388;7.086;2022-09-04T16:59:22;4.45;;;2.50;;
3321;SDS011;1673;51.388;7.086;2022-09-04T17:01:57;4.50;;;2.80;;
3321;SDS011;1673;51.388;7.086;2022-09-04T17:04:32;4.20;;;3.00;;
3321;SDS011;1673;51.388;7.086;2022-09-04T17:07:09;7.75;;;2.92;;
3321;SDS011;1673;51.388;7.086;2022-09-04T17:09:47;4.00;;;2.33;;
3321;SDS011;1673;51.388;7.086;2022-09-04T17:12:23;5.50;;;2.70;;
3321;SDS011;1673;51.388;7.086;2022-09-04T17:15:00;7.75;;;2.70;;
3321;SDS011;1673;51.388;7.086;2022-09-04T17:17:38;5.95;;;2.55;;
3321;SDS011;1673;51.388;7.086;2022-09-04T17:20:11;3.20;;;2.17;;
3321;SDS011;1673;51.388;7.086;2022-09-04T17:23:12;3.55;;;2.67;;
3321;SDS011;1673;51.388;7.086;2022-09-04T17:26:11;3.30;;;2.50;;
3321;SDS011;1673;51.388;7.086;2022-09-04T17:29:03;4.40;;;2.40;;
3321;SDS011;1673;51.388;7.086;2022-09-04T17:31:56;6.40;;;2.23;;
3321;SDS011;1673;51.388;7.086;2022-09-04T17:34:50;3.80;;;2.30;;
3321;SDS011;1673;51.388;7.086;2022-09-04T17:37:44;4.60;;;2.20;;
3321;SDS011;1673;51.388;7.086;2022-09-04T17:40:38;5.30;;;2.58;;
3321;SDS011;1673;51.388;7.086;2022-09-04T17:43:45;6.10;;;2.70;;
3321;SDS011;1673;51.388;7.086;2022-09-04T17:46:29;5.72;;;2.50;;
3321;SDS011;1673;51.388;7.086;2022-09-04T17:49:08;4.25;;;2.60;;
3321;SDS011;1673;51.388;7.086;2022-09-04T17:51:46;4.03;;;2.30;;
3321;SDS011;1673;51.388;7.086;2022-09-04T17:54:23;4.70;;;2.42;;
3321;SDS011;1673;51.388;7.086;2022-09-04T17:56:55;4.65;;;2.40;;
3321;SDS011;1673;51.388;7.086;2022-09-04T17:59:31;4.70;;;2.88;;
3321;SDS011;1673;51.388;7.086;2022-09-04T18:02:11;5.07;;;2.15;;
3321;SDS011;1673;51.388;7.086;2022-09-04T18:04:44;3.40;;;2.40;;
3321;SDS011;1673;51.388;7.086;2022-09-04T18:07:20;3.70;;;2.17;;
3321;SDS011;1673;51.388;7.086;2022-09-04T18:10:17;3.80;;;2.40;;
3321;SDS011;1673;51.388;7.086;2022-09-04T18:12:57;4.47;;;2.20;;
3321;SDS011;1673;51.388;7.086;2022-09-04T18:15:57;3.33;;;2.42;;
3321;SDS011;1673;51.388;7.086;2022-09-04T18:18:37;3.67;;;2.50;;
3321;SDS011;1673;51.388;7.086;2022-09-04T18:21:09;3.45;;;2.22;;
3321;SDS011;1673;51.388;7.086;2022-09-04T18:23:45;7.25;;;2.20;;
3321;SDS011;1673;51.388;7.086;2022-09-04T18:26:20;4.13;;;2.67;;
3321;SDS011;1673;51.388;7.086;2022-09-04T18:29:21;4.35;;;2.40;;
3321;SDS011;1673;51.388;7.086;2022-09-04T18:32:25;5.43;;;2.40;;
3321;SDS011;1673;51.388;7.086;2022-09-04T18:35:21;4.90;;;2.70;;
3321;SDS011;1673;51.388;7.086;2022-09-04T18:38:17;5.38;;;2.60;;
3321;SDS011;1673;51.388;7.086;2022-09-04T18:40:59;4.05;;;2.90;;